Time;durP1;ratioP1;P1;durP2;ratioP2;P2;SDS_P1;SDS_P2;PMS_P1;PMS_P2;Temp;Humidity;BMP_temperature;BMP_pressure;BME280_temperature;BME280_humidity;BME280_pressure;Samples;Min_cycle;Max_cycle;Signal;HPM_P1;HPM_P2
2022/08/28 00:00:37;;;;;;;12.23;4.80;;;;;;;19.43;100.00;101812.19;5071029;28;20036;-59
2022/08/28 00:03:03;;;;;;;15.77;5.40;;;;;;;19.87;100.00;101817.38;5073367;28;20033;-59
2022/08/28 00:05:30;;;;;;;17.92;6.57;;;;;;;19.92;100.00;101820.22;5068746;28;20272;-55
2022/08/28 00:07:57;;;;;;;15.70;4.67;;;;;;;19.94;100.00;101825.41;5070455;28;20033;-57
2022/08/28 00:10:24;;;;;;;14.87;5.67;;;;;;;20.00;100.00;101819.06;5075781;28;20266;-56
2022/08/28 00:12:52;;;;;;;14.88;4.93;;;;;;;19.92;100.00;101822.94;5064858;28;20301;-56
2022/08/28 00:15:23;;;;;;;19.73;5.20;;;;;;;19.78;100.00;101826.91;5067827;28;20033;-55
2022/08/28 00:17:49;;;;;;;14.13;4.77;;;;;;;19.78;100.00;101832.31;5070615;28;20287;-56
2022/08/28 00:20:17;;;;;;;16.08;5.95;;;;;;;19.71;100.00;101827.00;5068986;28;20297;-57
2022/08/28 00:22:44;;;;;;;114.20;51.33;;;;;;;19.70;100.00;101824.53;5071629;28;20086;-59
2022/08/28 00:25:12;;;;;;;23.47;10.17;;;;;;;19.69;100.00;101826.41;5078359;28;20266;-56
2022/08/28 00:27:52;;;;;;;20.07;8.07;;;;;;;19.67;100.00;101830.44;5069802;28;20280;-59
2022/08/28 00:30:40;;;;;;;44.93;18.03;;;;;;;19.66;100.00;101828.78;5071349;28;20262;-55
2022/08/28 00:33:16;;;;;;;16.23;5.93;;;;;;;19.58;100.00;101828.03;5072661;28;20274;-55
2022/08/28 00:35:42;;;;;;;19.63;6.55;;;;;;;19.51;100.00;101827.31;5080940;28;20262;-57
2022/08/28 00:38:10;;;;;;;16.33;5.65;;;;;;;19.46;100.00;101822.56;5076308;28;20068;-57
2022/08/28 00:40:36;;;;;;;15.10;6.07;;;;;;;19.41;100.00;101830.59;5078771;28;20032;-57
2022/08/28 00:43:04;;;;;;;12.77;5.30;;;;;;;19.40;100.00;101828.13;5076472;28;20296;-55
2022/08/28 00:45:32;;;;;;;16.27;6.13;;;;;;;19.32;100.00;101818.41;5072222;28;20049;-56
2022/08/28 00:47:57;;;;;;;19.20;5.23;;;;;;;19.27;100.00;101818.28;5069783;28;20278;-55
2022/08/28 00:50:28;;;;;;;20.17;6.18;;;;;;;19.23;100.00;101820.63;5078938;28;20266;-55
2022/08/28 00:52:59;;;;;;;14.90;6.03;;;;;;;19.18;100.00;101820.50;5073683;28;20029;-56
2022/08/28 00:55:27;;;;;;;13.67;4.80;;;;;;;19.19;100.00;101816.72;5070198;28;20271;-56
2022/08/28 00:57:57;;;;;;;13.80;4.20;;;;;;;19.15;100.00;101818.25;5072834;28;20258;-57
2022/08/28 01:00:29;;;;;;;12.63;4.70;;;;;;;19.12;100.00;101829.50;5073493;28;20266;-57
2022/08/28 01:02:54;;;;;;;9.23;4.63;;;;;;;19.13;100.00;101826.59;5074006;28;20275;-57
2022/08/28 01:05:21;;;;;;;13.00;5.23;;;;;;;19.10;100.00;101827.06;5070551;28;20313;-58
2022/08/28 01:07:48;;;;;;;17.87;5.93;;;;;;;19.06;100.00;101823.97;5076078;28;20085;-57
2022/08/28 01:10:18;;;;;;;15.13;6.33;;;;;;;19.01;100.00;101823.81;5077452;28;20289;-57
2022/08/28 01:12:44;;;;;;;14.97;5.20;;;;;;;19.03;100.00;101827.13;5071651;28;20294;-57
2022/08/28 01:15:13;;;;;;;11.52;4.65;;;;;;;19.02;100.00;101824.63;5072631;28;20274;-58
2022/08/28 01:17:48;;;;;;;13.40;4.67;;;;;;;19.00;100.00;101826.75;5074978;28;20044;-58
2022/08/28 01:20:19;;;;;;;15.77;5.00;;;;;;;18.85;100.00;101829.81;5076150;28;20273;-57
2022/08/28 01:23:02;;;;;;;16.27;5.40;;;;;;;18.89;100.00;101829.16;5075964;28;20308;-56
2022/08/28 01:25:32;;;;;;;16.17;5.17;;;;;;;18.90;100.00;101828.09;5077653;28;20285;-58
2022/08/28 01:27:58;;;;;;;12.57;5.07;;;;;;;18.90;100.00;101832.69;5074483;28;20269;-59
2022/08/28 01:30:24;;;;;;;12.93;5.68;;;;;;;18.89;100.00;101831.03;5075250;28;20270;-59
2022/08/28 01:32:53;;;;;;;18.50;5.38;;;;;;;18.84;100.00;101839.84;5075658;28;20039;-57
2022/08/28 01:35:23;;;;;;;14.33;4.53;;;;;;;18.83;100.00;101834.66;5076408;28;20036;-58
2022/08/28 01:37:49;;;;;;;12.37;4.67;;;;;;;18.80;100.00;101835.09;5073330;28;20282;-59
2022/08/28 01:40:21;;;;;;;13.40;4.63;;;;;;;18.80;100.00;101837.81;5071063;28;20289;-56
2022/08/28 01:42:47;;;;;;;16.30;5.10;;;;;;;18.70;100.00;101838.34;5078738;28;20070;-60
2022/08/28 01:45:16;;;;;;;17.25;5.40;;;;;;;18.65;100.00;101836.28;5071709;28;20289;-60
2022/08/28 01:47:43;;;;;;;14.60;4.30;;;;;;;18.62;100.00;101831.34;5071922;28;20029;-58
2022/08/28 01:50:12;;;;;;;20.27;5.00;;;;;;;18.59;100.00;101834.50;5074212;28;20308;-60
2022/08/28 01:52:38;;;;;;;22.30;5.60;;;;;;;18.59;100.00;101845.34;5074644;28;20272;-59
2022/08/28 01:55:05;;;;;;;14.15;3.80;;;;;;;18.58;100.00;101849.09;5075202;28;20273;-59
2022/08/28 01:57:32;;;;;;;13.87;4.43;;;;;;;18.38;100.00;101847.41;5075095;28;20025;-59
2022/08/28 01:59:58;;;;;;;11.18;4.30;;;;;;;18.42;100.00;101851.31;5082123;28;20270;-60
2022/08/28 02:02:25;;;;;;;6.40;3.60;;;;;;;18.51;100.00;101848.34;5074624;28;20052;-57
2022/08/28 02:04:52;;;;;;;12.75;3.92;;;;;;;18.42;100.00;101840.50;5077295;28;20281;-59
2022/08/28 02:07:19;;;;;;;14.57;4.13;;;;;;;18.25;100.00;101842.16;5074373;28;20032;-62
2022/08/28 02:09:44;;;;;;;14.32;4.63;;;;;;;18.37;100.00;101844.94;5078279;28;20342;-62
2022/08/28 02:12:10;;;;;;;12.73;5.13;;;;;;;18.37;100.00;101840.34;5076919;28;20044;-61
2022/08/28 02:14:37;;;;;;;14.18;4.40;;;;;;;18.36;100.00;101848.72;5077076;28;20052;-60
2022/08/28 02:17:02;;;;;;;;;;;;;;;18.28;100.00;101852.53;5077326;28;20071;-59
2022/08/28 02:19:30;;;;;;;17.97;5.10;;;;;;;18.24;100.00;101848.59;5077790;28;19916;-57
2022/08/28 02:21:56;;;;;;;21.27;4.70;;;;;;;18.30;100.00;101850.41;5078499;28;20049;-58
2022/08/28 02:24:21;;;;;;;19.27;4.77;;;;;;;18.37;100.00;101853.06;5076827;28;20278;-55
2022/08/28 02:26:46;;;;;;;21.00;4.87;;;;;;;18.31;100.00;101855.59;5078023;28;20041;-56
2022/08/28 02:29:12;;;;;;;13.32;4.85;;;;;;;18.28;100.00;101864.16;5072247;28;20058;-59
2022/08/28 02:31:38;;;;;;;12.70;4.40;;;;;;;18.22;100.00;101854.22;5077058;28;20041;-56
2022/08/28 02:34:04;;;;;;;9.98;3.95;;;;;;;18.11;100.00;101857.69;5072491;28;20033;-57
2022/08/28 02:36:32;;;;;;;17.23;5.70;;;;;;;18.20;100.00;101857.16;5074639;28;20044;-57
2022/08/28 02:38:58;;;;;;;12.97;4.90;;;;;;;18.25;100.00;101852.97;5071110;28;20270;-55
2022/08/28 02:41:24;;;;;;;9.65;4.07;;;;;;;18.18;100.00;101850.31;5074003;28;20255;-54
2022/08/28 02:43:51;;;;;;;22.00;4.22;;;;;;;18.20;100.00;101854.44;5074724;28;20051;-57
2022/08/28 02:46:16;;;;;;;;;;;;;;;18.17;100.00;101851.38;5079044;28;20051;-57
2022/08/28 02:48:41;;;;;;;10.70;3.93;;;;;;;18.23;100.00;101846.97;5075913;28;19913;-59
2022/08/28 02:51:12;;;;;;;12.80;4.45;;;;;;;18.19;100.00;101854.69;5075889;28;20033;-57
2022/08/28 02:53:38;;;;;;;12.67;4.00;;;;;;;18.13;100.00;101859.09;5073987;28;20044;-58
2022/08/28 02:56:05;;;;;;;19.75;5.22;;;;;;;17.91;100.00;101856.75;5078572;28;20273;-56
2022/08/28 02:58:31;;;;;;;;;;;;;;;18.04;100.00;101863.94;5078513;28;20100;-58
2022/08/28 03:00:59;;;;;;;9.37;3.67;;;;;;;18.11;100.00;101863.09;5076953;28;19943;-58
2022/08/28 03:03:26;;;;;;;21.67;4.50;;;;;;;18.02;100.00;101857.94;5074869;28;20266;-58
2022/08/28 03:05:52;;;;;;;17.30;4.17;;;;;;;18.02;100.00;101865.25;5070227;28;20274;-58
2022/08/28 03:08:18;;;;;;;15.85;4.32;;;;;;;17.86;100.00;101863.84;5074059;28;20278;-54
2022/08/28 03:10:43;;;;;;;15.82;4.40;;;;;;;17.87;100.00;101862.81;5069362;28;20069;-55
2022/08/28 03:13:10;;;;;;;11.60;4.10;;;;;;;17.80;100.00;101865.56;5070495;28;20025;-59
2022/08/28 03:15:37;;;;;;;10.93;4.33;;;;;;;17.87;100.00;101863.66;5071993;28;20044;-59
2022/08/28 03:18:03;;;;;;;13.37;4.60;;;;;;;17.85;100.00;101865.75;5070111;28;20293;-56
2022/08/28 03:20:29;;;;;;;19.45;4.18;;;;;;;17.80;100.00;101867.44;5073377;28;20269;-58
2022/08/28 03:25:38;;;;;;;11.67;4.00;;;;;;;17.80;100.00;101868.28;5075447;28;20063;-58
2022/08/28 03:28:04;;;;;;;21.10;4.90;;;;;;;17.85;100.00;101864.91;5078717;28;20297;-58
2022/08/28 03:30:29;;;;;;;14.00;4.40;;;;;;;17.78;100.00;101865.78;5079832;28;20059;-59
2022/08/28 03:32:55;;;;;;;15.95;4.30;;;;;;;17.74;100.00;101872.69;5076325;28;20039;-57
2022/08/28 03:35:20;;;;;;;12.27;4.53;;;;;;;17.79;100.00;101866.63;5074381;28;20057;-58
2022/08/28 03:37:46;;;;;;;13.95;4.35;;;;;;;17.78;100.00;101875.78;5073924;28;20033;-58
2022/08/28 03:40:13;;;;;;;13.27;4.47;;;;;;;17.76;100.00;101873.28;5073678;28;20064;-55
2022/08/28 03:42:39;;;;;;;11.07;4.83;;;;;;;17.75;100.00;101873.50;5071976;28;20041;-57
2022/08/28 03:45:08;;;;;;;11.88;4.43;;;;;;;17.63;100.00;101867.97;5070707;28;20292;-58
2022/08/28 03:47:35;;;;;;;14.57;4.37;;;;;;;17.70;100.00;101881.44;5071416;28;20056;-59
2022/08/28 03:50:01;;;;;;;15.53;4.83;;;;;;;17.75;100.00;101881.63;5074323;28;20284;-58
2022/08/28 03:52:27;;;;;;;12.32;4.75;;;;;;;17.68;100.00;101878.13;5071392;28;20276;-58
2022/08/28 03:54:53;;;;;;;13.38;4.55;;;;;;;17.70;100.00;101882.28;5073256;28;20117;-57
2022/08/28 03:57:20;;;;;;;18.45;4.57;;;;;;;17.61;100.00;101881.72;5079479;28;20044;-58
2022/08/28 03:59:51;;;;;;;15.60;4.13;;;;;;;17.61;100.00;101880.88;5077628;28;20044;-58
2022/08/28 04:02:19;;;;;;;9.63;3.50;;;;;;;17.58;100.00;101887.56;5077819;28;20270;-56
2022/08/28 04:04:46;;;;;;;9.43;3.47;;;;;;;17.64;100.00;101888.53;5079731;28;20262;-58
2022/08/28 04:07:12;;;;;;;15.37;4.70;;;;;;;17.62;100.00;101885.22;5080382;28;20269;-57
2022/08/28 04:09:38;;;;;;;18.48;4.70;;;;;;;17.54;100.00;101889.03;5080068;28;20285;-58
2022/08/28 04:12:05;;;;;;;17.50;5.07;;;;;;;17.54;100.00;101890.91;5079145;28;20052;-56
2022/08/28 04:14:31;;;;;;;17.40;4.63;;;;;;;17.45;100.00;101887.63;5079921;28;20063;-58
2022/08/28 04:16:56;;;;;;;11.93;4.95;;;;;;;17.02;100.00;101887.16;5084711;28;20277;-59
2022/08/28 04:19:22;;;;;;;9.88;3.90;;;;;;;16.99;100.00;101893.00;5079424;28;20108;-57
2022/08/28 04:21:47;;;;;;;19.30;4.57;;;;;;;16.96;100.00;101885.28;5076832;28;20037;-57
2022/08/28 04:24:13;;;;;;;12.73;4.10;;;;;;;16.91;100.00;101896.72;5076027;28;20036;-57
2022/08/28 04:26:38;;;;;;;12.15;3.80;;;;;;;16.87;100.00;101892.00;5076262;28;20104;-59
2022/08/28 04:29:05;;;;;;;14.10;4.10;;;;;;;16.92;100.00;101892.19;5076655;28;20040;-58
2022/08/28 04:31:30;;;;;;;;;;;;;;;16.83;100.00;101898.84;5081469;28;20097;-58
2022/08/28 04:33:57;;;;;;;17.63;4.43;;;;;;;16.93;100.00;101899.25;5083258;28;19944;-58
2022/08/28 04:36:23;;;;;;;14.67;4.80;;;;;;;16.88;100.00;101889.06;5079985;28;20021;-58
2022/08/28 04:38:49;;;;;;;15.82;4.20;;;;;;;16.88;100.00;101899.88;5079828;28;20362;-59
2022/08/28 04:41:16;;;;;;;15.93;4.27;;;;;;;16.84;100.00;101895.09;5082313;28;20043;-58
2022/08/28 04:43:43;;;;;;;16.50;4.93;;;;;;;16.86;100.00;101903.84;5077434;28;20300;-59
2022/08/28 04:46:11;;;;;;;16.80;4.73;;;;;;;16.86;100.00;101904.66;5082331;28;20270;-58
2022/08/28 04:48:38;;;;;;;14.77;4.30;;;;;;;16.83;100.00;101907.78;5077061;28;20274;-55
2022/08/28 04:51:08;;;;;;;20.13;4.87;;;;;;;16.82;100.00;101910.69;5078755;28;20265;-58
2022/08/28 04:53:35;;;;;;;12.87;4.53;;;;;;;16.84;100.00;101908.59;5078305;28;20270;-58
2022/08/28 04:56:04;;;;;;;16.73;5.03;;;;;;;16.90;100.00;101908.59;5073877;28;20272;-56
2022/08/28 04:58:31;;;;;;;15.77;4.67;;;;;;;16.93;100.00;101901.94;5077765;28;20270;-56
2022/08/28 05:00:56;;;;;;;;;;;;;;;16.92;100.00;101906.50;5071944;28;20552;-58
2022/08/28 05:03:22;;;;;;;13.83;3.80;;;;;;;16.89;100.00;101906.13;5076587;28;19968;-56
2022/08/28 05:05:50;;;;;;;7.63;3.63;;;;;;;16.89;100.00;101919.63;5076238;28;20056;-59
2022/08/28 05:08:19;;;;;;;10.60;3.80;;;;;;;16.84;100.00;101914.00;5074494;28;20043;-57
2022/08/28 05:10:45;;;;;;;12.07;3.80;;;;;;;16.91;100.00;101920.25;5080882;28;20289;-57
2022/08/28 05:13:12;;;;;;;;;;;;;;;16.87;100.00;101913.59;5075903;28;20258;-57
2022/08/28 05:15:43;;;;;;;11.82;3.67;;;;;;;16.96;100.00;101917.72;5077975;28;19913;-58
2022/08/28 05:18:10;;;;;;;18.90;4.07;;;;;;;16.83;100.00;101915.03;5079080;28;20032;-57
2022/08/28 05:20:41;;;;;;;14.33;3.70;;;;;;;16.98;100.00;101912.13;5077164;28;20273;-57
2022/08/28 05:23:08;;;;;;;18.83;3.80;;;;;;;17.57;100.00;101917.50;5074998;28;20297;-58
2022/08/28 05:25:35;;;;;;;14.57;3.40;;;;;;;17.20;100.00;101918.94;5082431;28;20257;-57
2022/08/28 05:28:01;;;;;;;15.83;4.27;;;;;;;17.28;100.00;101919.72;5079954;28;20261;-56
2022/08/28 05:30:27;;;;;;;16.65;3.90;;;;;;;17.14;100.00;101924.38;5081250;28;20269;-56
2022/08/28 05:32:52;;;;;;;16.70;4.07;;;;;;;17.19;100.00;101927.25;5077150;28;20123;-57
2022/08/28 05:35:18;;;;;;;12.25;3.30;;;;;;;17.19;100.00;101938.06;5078862;28;20066;-57
2022/08/28 05:37:44;;;;;;;10.57;3.92;;;;;;;17.11;100.00;101941.81;5075963;28;20039;-54
2022/08/28 05:40:11;;;;;;;12.05;3.92;;;;;;;17.18;100.00;101941.81;5072969;28;20040;-58
2022/08/28 05:42:37;;;;;;;16.37;3.60;;;;;;;17.17;100.00;101942.84;5073976;28;20037;-58
2022/08/28 05:45:05;;;;;;;11.85;4.72;;;;;;;17.25;100.00;101944.50;5074526;28;20270;-57
2022/08/28 05:47:31;;;;;;;12.73;3.47;;;;;;;17.31;100.00;101941.78;5076641;28;20041;-57
2022/08/28 05:49:58;;;;;;;9.40;3.50;;;;;;;17.33;100.00;101941.53;5075295;28;20345;-57
2022/08/28 05:52:24;;;;;;;16.73;4.25;;;;;;;17.38;100.00;101940.91;5079800;28;20048;-57
2022/08/28 05:54:50;;;;;;;15.88;3.47;;;;;;;17.34;100.00;101945.91;5078981;28;20028;-55
2022/08/28 05:57:16;;;;;;;16.33;3.80;;;;;;;17.49;100.00;101949.19;5075527;28;20037;-58
2022/08/28 05:59:42;;;;;;;9.57;2.92;;;;;;;17.54;100.00;101951.25;5076770;28;20258;-58
2022/08/28 06:02:08;;;;;;;15.73;2.80;;;;;;;17.55;100.00;101946.66;5078553;28;20043;-55
2022/08/28 06:04:35;;;;;;;11.35;3.22;;;;;;;17.65;100.00;101951.59;5080920;28;20029;-57
2022/08/28 06:07:00;;;;;;;10.83;3.13;;;;;;;17.73;100.00;101952.19;5077732;28;20116;-57
2022/08/28 06:09:28;;;;;;;9.15;2.90;;;;;;;18.23;100.00;101947.94;5077658;28;20273;-56
2022/08/28 06:11:55;;;;;;;12.87;3.73;;;;;;;18.39;100.00;101951.97;5073161;28;20045;-58
2022/08/28 06:14:21;;;;;;;14.50;2.80;;;;;;;18.39;100.00;101951.97;5073903;28;20280;-56
2022/08/28 06:16:49;;;;;;;6.32;2.67;;;;;;;18.47;100.00;101954.44;5073582;28;20353;-58
2022/08/28 06:19:15;;;;;;;10.60;3.30;;;;;;;18.52;100.00;101963.75;5078774;28;20024;-57
2022/08/28 06:21:42;;;;;;;10.20;2.97;;;;;;;18.50;100.00;101961.25;5071500;28;20293;-57
2022/08/28 06:24:09;;;;;;;8.93;2.53;;;;;;;18.52;100.00;101956.44;5079228;28;20039;-57
2022/08/28 06:26:35;;;;;;;14.97;3.30;;;;;;;18.60;100.00;101955.34;5075324;28;20293;-56
2022/08/28 06:29:07;;;;;;;12.63;2.92;;;;;;;18.63;100.00;101963.03;5074757;28;20341;-58
2022/08/28 06:31:34;;;;;;;14.80;3.93;;;;;;;18.67;100.00;101963.41;5077605;28;20033;-58
2022/08/28 06:34:00;;;;;;;6.95;2.53;;;;;;;18.68;100.00;101965.88;5079018;28;20269;-56
2022/08/28 06:36:29;;;;;;;11.40;2.90;;;;;;;18.74;100.00;101966.88;5076233;28;20036;-56
2022/08/28 06:38:57;;;;;;;7.37;2.90;;;;;;;18.86;100.00;101970.53;5075864;28;20036;-56
2022/08/28 06:41:24;;;;;;;6.97;2.50;;;;;;;18.96;100.00;101972.72;5079368;28;20321;-56
2022/08/28 06:43:50;;;;;;;9.07;2.87;;;;;;;19.01;100.00;101975.63;5077757;28;20357;-56
2022/08/28 06:46:16;;;;;;;8.73;2.70;;;;;;;19.13;100.00;101978.41;5078068;28;20281;-59
2022/08/28 06:48:42;;;;;;;13.23;2.95;;;;;;;19.22;100.00;101978.94;5073374;28;20124;-57
2022/08/28 06:51:10;;;;;;;6.95;2.78;;;;;;;19.18;100.00;101981.28;5075389;28;20036;-57
2022/08/28 06:53:38;;;;;;;7.63;2.57;;;;;;;19.28;100.00;101975.31;5075321;28;20060;-58
2022/08/28 06:56:18;;;;;;;9.17;2.53;;;;;;;19.26;100.00;101985.56;5076329;28;20262;-58
2022/08/28 06:58:46;;;;;;;15.47;2.73;;;;;;;19.41;100.00;101987.09;5069193;28;20093;-58
2022/08/28 07:01:16;;;;;;;8.57;2.40;;;;;;;19.49;100.00;101981.34;5075045;28;20029;-59
2022/08/28 07:03:42;;;;;;;9.57;2.50;;;;;;;19.52;100.00;101980.06;5074199;28;20092;-61
2022/08/28 07:06:09;;;;;;;19.30;2.77;;;;;;;19.67;100.00;101979.66;5073595;28;20104;-59
2022/08/28 07:08:36;;;;;;;10.67;2.73;;;;;;;19.63;100.00;101974.69;5073418;28;20041;-57
2022/08/28 07:11:12;;;;;;;10.17;2.90;;;;;;;19.77;100.00;101978.06;5078657;28;20032;-58
2022/08/28 07:13:39;;;;;;;9.27;2.35;;;;;;;19.70;100.00;101979.22;5075328;28;20049;-56
2022/08/28 07:16:05;;;;;;;15.27;2.57;;;;;;;19.85;100.00;101984.22;5077792;28;20029;-57
2022/08/28 07:18:31;;;;;;;9.85;2.30;;;;;;;19.99;100.00;101979.47;5078184;28;20050;-58
2022/08/28 07:20:59;;;;;;;7.93;2.50;;;;;;;19.66;100.00;101986.16;5075209;28;20036;-57
2022/08/28 07:23:26;;;;;;;7.87;2.73;;;;;;;20.06;100.00;101991.88;5077206;28;20092;-56
2022/08/28 07:25:52;;;;;;;9.30;2.70;;;;;;;19.97;100.00;101987.00;5074649;28;20041;-58
2022/08/28 07:28:18;;;;;;;;;;;;;;;20.10;100.00;101994.13;5077388;28;20127;-57
2022/08/28 07:30:44;;;;;;;4.90;2.20;;;;;;;20.40;100.00;101996.81;5072379;28;19921;-59
2022/08/28 07:33:11;;;;;;;7.73;2.33;;;;;;;20.44;100.00;102000.72;5077878;28;20033;-55
2022/08/28 07:35:36;;;;;;;6.50;2.30;;;;;;;20.48;100.00;102001.88;5075073;28;20040;-55
2022/08/28 07:38:01;;;;;;;6.73;2.33;;;;;;;20.18;100.00;102000.06;5074486;28;20067;-59
2022/08/28 07:40:27;;;;;;;5.93;2.28;;;;;;;20.09;100.00;102004.19;5079261;28;20265;-58
2022/08/28 07:45:37;;;;;;;7.97;2.57;;;;;;;20.63;100.00;102001.44;5077157;28;20041;-59
2022/08/28 07:48:07;;;;;;;15.70;2.15;;;;;;;20.80;100.00;102003.50;5076689;28;20037;-58
2022/08/28 07:50:34;;;;;;;8.67;2.37;;;;;;;20.35;100.00;101999.41;5082389;28;20048;-57
2022/08/28 07:52:59;;;;;;;;;;;;;;;20.72;100.00;102004.63;5082175;28;20047;-55
2022/08/28 07:55:26;;;;;;;9.03;2.60;;;;;;;20.63;100.00;102006.88;5078257;28;19932;-57
2022/08/28 07:57:52;;;;;;;10.17;2.50;;;;;;;20.60;100.00;101995.66;5079964;28;20101;-58
2022/08/28 08:00:18;;;;;;;7.32;2.58;;;;;;;21.01;100.00;102006.69;5081126;28;20029;-59
2022/08/28 08:02:44;;;;;;;;;;;;;;;21.18;100.00;102009.50;5079882;28;20151;-58
2022/08/28 08:05:10;;;;;;;12.50;2.87;;;;;;;21.30;100.00;102020.34;5077793;28;19916;-58
2022/08/28 08:07:38;;;;;;;9.57;2.30;;;;;;;21.50;100.00;102011.81;5072283;28;20029;-58
2022/08/28 08:10:07;;;;;;;5.73;2.40;;;;;;;21.53;100.00;102013.22;5073558;28;20059;-57
2022/08/28 08:12:33;;;;;;;6.73;2.40;;;;;;;21.67;100.00;102019.22;5074663;28;20109;-57
2022/08/28 08:14:59;;;;;;;12.75;3.08;;;;;;;21.79;100.00;102017.31;5076417;28;20044;-57
2022/08/28 08:17:24;;;;;;;7.32;2.13;;;;;;;22.01;100.00;102017.44;5080875;28;20037;-56
2022/08/28 08:19:50;;;;;;;6.88;2.30;;;;;;;21.96;100.00;102021.97;5077489;28;20026;-58
2022/08/28 08:22:16;;;;;;;7.67;2.10;;;;;;;21.94;100.00;102024.13;5076917;28;20043;-55
2022/08/28 08:24:42;;;;;;;5.78;1.80;;;;;;;22.45;100.00;102029.63;5073453;28;20283;-59
2022/08/28 08:27:09;;;;;;;6.00;2.17;;;;;;;22.51;100.00;102027.84;5078201;28;20029;-60
2022/08/28 08:29:36;;;;;;;7.07;2.13;;;;;;;22.40;100.00;102030.41;5078876;28;20033;-58
2022/08/28 08:32:09;;;;;;;9.93;2.37;;;;;;;22.54;100.00;102032.81;5079193;28;20086;-59
2022/08/28 08:34:38;;;;;;;6.33;1.97;;;;;;;22.41;100.00;102028.47;5082944;28;20037;-58
2022/08/28 08:37:05;;;;;;;6.00;2.13;;;;;;;22.89;100.00;102031.72;5079223;28;20043;-59
2022/08/28 08:39:31;;;;;;;;;;;;;;;22.95;100.00;102033.44;5082967;28;20093;-58
2022/08/28 08:41:58;;;;;;;4.93;2.00;;;;;;;23.02;100.00;102030.56;5078688;28;19947;-57
2022/08/28 08:44:30;;;;;;;5.93;1.83;;;;;;;22.97;100.00;102033.22;5079241;28;20067;-58
2022/08/28 08:47:18;;;;;;;10.57;1.83;;;;;;;22.92;100.00;102036.69;5075955;28;20040;-57
2022/08/28 08:49:51;;;;;;;8.00;2.10;;;;;;;23.08;100.00;102031.47;5074320;28;20029;-58
2022/08/28 08:52:24;;;;;;;5.20;1.70;;;;;;;22.96;100.00;102029.66;5075956;28;20092;-59
2022/08/28 08:55:18;;;;;;;5.63;2.47;;;;;;;23.28;100.00;102020.81;5073441;28;20047;-59
2022/08/28 08:57:46;;;;;;;4.17;1.50;;;;;;;23.43;100.00;102035.75;5074532;28;20039;-58
2022/08/28 09:00:14;;;;;;;7.57;2.27;;;;;;;23.55;100.00;102027.44;5073393;28;20032;-60
2022/08/28 09:03:08;;;;;;;7.03;1.97;;;;;;;23.81;100.00;102027.72;5075297;28;20033;-59
2022/08/28 09:05:41;;;;;;;11.47;1.90;;;;;;;23.97;100.00;102032.28;5077209;28;20056;-58
2022/08/28 09:08:15;;;;;;;6.30;1.73;;;;;;;24.01;100.00;102030.72;5077428;28;20043;-59
2022/08/28 09:10:50;;;;;;;5.10;1.47;;;;;;;24.03;100.00;102033.19;5075133;28;20037;-59
2022/08/28 09:13:16;;;;;;;5.25;1.52;;;;;;;24.74;100.00;102029.44;5079555;28;20048;-56
2022/08/28 09:15:44;;;;;;;;;;;;;;;24.67;100.00;102022.53;5076141;28;20117;-58
2022/08/28 09:18:12;;;;;;;;;;;;;;;25.25;100.00;102030.00;5081712;28;19968;-57
2022/08/28 09:20:39;;;;;;;5.17;1.30;;;;;;;25.73;100.00;102028.06;5079403;28;19912;-57
2022/08/28 09:23:05;;;;;;;6.47;1.63;;;;;;;26.18;100.00;102028.41;5078609;28;20059;-59
2022/08/28 09:25:49;;;;;;;5.50;2.00;;;;;;;26.42;100.00;102032.56;5076995;28;20025;-57
2022/08/28 09:28:29;;;;;;;3.33;1.47;;;;;;;26.15;100.00;102033.59;5071353;28;20160;-57
2022/08/28 09:31:30;;;;;;;5.10;1.58;;;;;;;26.19;98.85;102035.56;5070696;28;20095;-56
2022/08/28 09:34:16;;;;;;;10.10;2.10;;;;;;;27.12;94.75;102039.31;5074843;28;20045;-58
2022/08/28 09:36:42;;;;;;;9.15;1.85;;;;;;;27.83;89.40;102053.06;5071391;28;20028;-61
2022/08/28 09:39:16;;;;;;;7.32;1.50;;;;;;;28.00;88.38;102049.94;5070487;28;20032;-60
2022/08/28 09:45:15;;;;;;;8.60;1.83;;;;;;;28.57;81.69;102042.06;5070813;28;20093;-57
2022/08/28 09:47:59;;;;;;;5.97;1.88;;;;;;;27.73;87.84;102037.44;5074782;28;20029;-60
2022/08/28 09:50:30;;;;;;;3.85;1.42;;;;;;;28.94;81.64;102037.06;5076550;28;20055;-57
2022/08/28 09:53:15;;;;;;;5.40;2.22;;;;;;;30.03;69.60;102044.78;5073955;28;20033;-59
2022/08/28 09:56:07;;;;;;;6.28;1.80;;;;;;;30.85;64.85;102046.44;5072267;28;20025;-58
2022/08/28 09:58:36;;;;;;;4.75;1.50;;;;;;;31.31;60.91;102058.56;5071273;28;20052;-58
2022/08/28 10:01:23;;;;;;;7.80;1.88;;;;;;;31.76;60.03;102060.63;5070677;28;20093;-58
2022/08/28 10:03:54;;;;;;;;;;;;;;;32.13;58.05;102055.91;5072904;28;20080;-57
2022/08/28 10:06:25;;;;;;;6.05;2.63;;;;;;;32.52;54.09;102058.28;5073325;28;19934;-58
2022/08/28 10:09:04;;;;;;;7.88;2.17;;;;;;;32.90;52.53;102060.63;5070847;28;20040;-57
2022/08/28 10:12:05;;;;;;;4.30;1.55;;;;;;;32.03;54.11;102051.44;5074277;28;20039;-58
2022/08/28 10:14:49;;;;;;;7.65;1.67;;;;;;;31.11;57.47;102051.47;5067118;28;20041;-58
2022/08/28 10:17:22;;;;;;;4.10;1.20;;;;;;;29.87;73.06;102044.16;5068172;28;20029;-55
2022/08/28 10:20:02;;;;;;;10.57;1.52;;;;;;;28.41;71.54;102055.16;5075993;28;20033;-55
2022/08/28 10:23:05;;;;;;;3.78;1.30;;;;;;;27.95;82.09;102048.03;5075454;28;20043;-57
2022/08/28 10:25:46;;;;;;;7.55;1.98;;;;;;;27.83;76.99;102042.88;5071005;28;20037;-58
2022/08/28 10:28:26;;;;;;;8.20;2.03;;;;;;;28.00;84.28;102044.44;5075982;28;20036;-59
2022/08/28 10:31:00;;;;;;;4.22;1.42;;;;;;;28.17;84.69;102053.13;5071014;28;20043;-57
2022/08/28 10:33:41;;;;;;;6.60;1.88;;;;;;;28.92;82.56;102044.78;5074447;28;20036;-58
2022/08/28 10:36:25;;;;;;;4.00;1.80;;;;;;;31.38;64.47;102055.41;5070436;28;20101;-58
2022/08/28 10:39:06;;;;;;;8.18;2.33;;;;;;;32.50;54.70;102063.34;5064328;28;20060;-56
2022/08/28 10:41:42;;;;;;;3.95;2.03;;;;;;;32.90;55.05;102060.63;5066908;28;20140;-57
2022/08/28 10:44:12;;;;;;;7.03;2.50;;;;;;;34.03;52.39;102067.59;5068015;28;20056;-56
2022/08/28 10:46:49;;;;;;;5.80;1.75;;;;;;;33.92;45.60;102065.44;5068711;28;20048;-58
2022/08/28 10:49:46;;;;;;;5.88;1.92;;;;;;;33.26;48.01;102070.72;5069253;28;20119;-59
2022/08/28 10:52:21;;;;;;;3.58;1.73;;;;;;;33.40;50.59;102056.72;5062853;28;20045;-62
2022/08/28 10:55:22;;;;;;;6.18;1.90;;;;;;;34.56;51.96;102064.72;5072371;28;20078;-59
2022/08/28 10:58:02;;;;;;;5.38;2.00;;;;;;;33.66;50.62;102074.53;5075982;28;20044;-57
2022/08/28 11:00:28;;;;;;;5.05;2.35;;;;;;;34.36;45.39;102068.97;5069843;28;20043;-56
2022/08/28 11:03:03;;;;;;;3.95;1.98;;;;;;;34.77;51.06;102065.97;5072236;28;20036;-59
2022/08/28 11:05:33;;;;;;;7.10;2.20;;;;;;;34.31;45.83;102061.66;5071557;28;20041;-55
2022/08/28 11:08:05;;;;;;;3.20;2.00;;;;;;;35.25;43.55;102066.75;5074804;28;20036;-57
2022/08/28 11:10:31;;;;;;;5.13;1.60;;;;;;;35.68;45.44;102060.09;5072794;28;20033;-57
2022/08/28 11:12:58;;;;;;;5.30;3.05;;;;;;;34.77;42.67;102054.84;5075107;28;20064;-56
2022/08/28 11:15:27;;;;;;;7.00;2.10;;;;;;;33.59;45.28;102055.63;5070430;28;20101;-58
2022/08/28 11:17:55;;;;;;;5.13;2.35;;;;;;;33.84;50.03;102055.97;5064276;28;20040;-59
2022/08/28 11:20:26;;;;;;;4.70;2.60;;;;;;;34.73;50.25;102063.06;5066869;28;20033;-58
2022/08/28 11:23:09;;;;;;;8.18;2.20;;;;;;;33.78;45.36;102063.63;5069459;28;20033;-57
2022/08/28 11:25:58;;;;;;;8.68;2.60;;;;;;;33.22;52.76;102060.59;5070251;28;20078;-55
2022/08/28 11:28:24;;;;;;;4.53;2.08;;;;;;;33.80;44.51;102055.81;5069464;28;20034;-59
2022/08/28 11:31:05;;;;;;;4.47;1.77;;;;;;;35.37;46.19;102063.22;5073344;28;20047;-58
2022/08/28 11:33:51;;;;;;;5.70;2.05;;;;;;;36.22;39.78;102058.47;5078409;28;20043;-59
2022/08/28 11:36:28;;;;;;;4.65;1.63;;;;;;;37.13;38.92;102067.91;5071875;28;20040;-56